createdAt,value
2018-07-11T00:02:31.272Z,16.57
2018-07-11T00:06:34.712Z,14.20
2018-07-11T00:10:38.116Z,11.43
2018-07-11T00:14:41.505Z,18.00
2018-07-11T00:18:44.902Z,12.43
2018-07-11T00:22:48.303Z,14.53
2018-07-11T00:26:51.713Z,14.53
2018-07-11T00:30:55.288Z,17.20
2018-07-11T00:34:58.681Z,10.30
2018-07-11T00:39:02.227Z,10.87
2018-07-11T00:43:05.689Z,13.47
2018-07-11T00:47:09.085Z,8.70
2018-07-11T00:51:12.565Z,8.10
2018-07-11T00:55:15.973Z,10.80
2018-07-11T00:59:23.747Z,8.40
2018-07-11T01:03:27.141Z,7.43
2018-07-11T01:07:30.802Z,5.57
2018-07-11T01:11:36.306Z,6.67
2018-07-11T01:15:39.689Z,6.30
2018-07-11T01:19:44.049Z,8.60
2018-07-11T01:23:47.411Z,6.67
2018-07-11T01:27:50.771Z,9.10
2018-07-11T01:31:54.282Z,9.50
2018-07-11T01:35:57.642Z,10.40
2018-07-11T01:40:00.991Z,12.03
2018-07-11T01:44:04.381Z,12.60
2018-07-11T01:48:07.776Z,9.70
2018-07-11T01:52:22.471Z,13.83
2018-07-11T01:56:26.513Z,9.97
2018-07-11T02:00:30.763Z,12.53
2018-07-11T02:04:35.985Z,13.60
2018-07-11T02:08:42.387Z,12.17
2018-07-11T02:12:45.795Z,15.40
2018-07-11T02:16:49.215Z,19.10
2018-07-11T02:20:52.674Z,12.50
2018-07-11T02:24:56.107Z,20.30
2018-07-11T02:29:00.264Z,16.20
2018-07-11T02:33:03.342Z,15.00
2018-07-11T02:37:06.707Z,15.27
2018-07-11T02:41:10.112Z,12.23
2018-07-11T02:45:13.476Z,17.13
2018-07-11T02:49:16.905Z,12.00
2018-07-11T02:53:24.168Z,13.90
2018-07-11T02:57:27.593Z,17.57
2018-07-11T03:01:30.966Z,18.30
2018-07-11T03:05:35.130Z,19.13
2018-07-11T03:09:38.507Z,16.67
2018-07-11T03:13:42.080Z,17.37
2018-07-11T03:17:45.441Z,15.00
2018-07-11T03:21:48.920Z,15.50
2018-07-11T03:25:52.809Z,15.33
2018-07-11T03:29:56.199Z,17.67
2018-07-11T03:33:59.596Z,17.13
2018-07-11T03:38:03.024Z,17.23
2018-07-11T03:42:06.393Z,19.73
2018-07-11T03:46:09.747Z,16.90
2018-07-11T03:50:13.107Z,20.47
2018-07-11T03:54:16.471Z,14.30
2018-07-11T03:58:19.820Z,16.80
2018-07-11T04:02:23.175Z,20.73
2018-07-11T04:06:26.519Z,14.97
2018-07-11T04:10:29.892Z,20.73
2018-07-11T04:14:33.260Z,17.47
2018-07-11T04:18:36.587Z,17.00
2018-07-11T04:22:39.914Z,15.17
2018-07-11T04:26:43.262Z,23.00
2018-07-11T04:30:46.749Z,16.50
2018-07-11T04:34:50.100Z,16.13
2018-07-11T04:38:53.477Z,15.07
2018-07-11T04:42:56.835Z,23.03
2018-07-11T04:47:00.202Z,21.00
2018-07-11T04:51:03.707Z,27.37
2018-07-11T04:55:07.173Z,20.03
2018-07-11T04:59:10.513Z,18.47
2018-07-11T05:03:13.842Z,17.07
2018-07-11T05:07:17.159Z,14.93
2018-07-11T05:11:20.474Z,16.70
2018-07-11T05:15:23.834Z,16.00
2018-07-11T05:19:27.168Z,17.53
2018-07-11T05:23:30.523Z,27.67
2018-07-11T05:27:33.904Z,19.37
2018-07-11T05:31:37.258Z,17.73
2018-07-11T05:35:40.610Z,16.53
2018-07-11T05:39:43.976Z,16.40
2018-07-11T05:43:47.351Z,14.37
2018-07-11T05:47:50.871Z,14.63
2018-07-11T05:51:54.290Z,19.47
2018-07-11T05:55:57.645Z,26.17
2018-07-11T06:00:01.027Z,18.20
2018-07-11T06:04:04.344Z,22.77
2018-07-11T06:08:07.971Z,25.13
2018-07-11T06:12:11.302Z,17.50
2018-07-11T06:16:14.719Z,26.30
2018-07-11T06:20:18.074Z,20.83
2018-07-11T06:24:21.568Z,18.47
2018-07-11T06:28:24.890Z,18.80
2018-07-11T06:32:28.234Z,18.17
2018-07-11T06:36:31.592Z,24.50
2018-07-11T06:40:34.951Z,24.90
2018-07-11T06:44:38.300Z,20.83
2018-07-11T06:48:41.611Z,20.87
2018-07-11T06:52:44.955Z,22.87
2018-07-11T06:56:48.406Z,45.70
2018-07-11T07:00:51.883Z,39.77
2018-07-11T07:04:55.212Z,45.87
2018-07-11T07:08:58.534Z,39.33
2018-07-11T07:13:01.879Z,43.70
2018-07-11T07:17:05.251Z,41.10
2018-07-11T07:21:08.606Z,47.70
2018-07-11T07:25:12.084Z,47.17
2018-07-11T07:29:15.411Z,46.10
2018-07-11T07:33:18.779Z,35.27
2018-07-11T07:37:22.324Z,34.83
2018-07-11T07:41:25.670Z,50.63
2018-07-11T07:45:29.054Z,48.90
2018-07-11T07:49:32.783Z,55.97
2018-07-11T07:53:36.148Z,49.23
2018-07-11T07:57:39.854Z,56.17
2018-07-11T08:01:43.185Z,47.57
2018-07-11T08:05:46.564Z,44.50
2018-07-11T08:09:49.926Z,41.87
2018-07-11T08:13:53.280Z,38.03
2018-07-11T08:17:56.610Z,38.03
2018-07-11T08:22:10.052Z,40.10
2018-07-11T08:26:25.414Z,38.53
2018-07-11T08:30:41.308Z,47.57
2018-07-11T08:35:02.881Z,33.23
2018-07-11T08:43:25.245Z,40.50
2018-07-11T08:47:47.386Z,33.30
2018-07-11T08:52:16.064Z,26.50
2018-07-11T08:58:35.932Z,28.83
2018-07-11T09:03:49.821Z,55.87
2018-07-11T09:08:05.425Z,48.37
2018-07-11T09:12:13.578Z,41.20
2018-07-11T09:16:25.431Z,39.40
2018-07-11T09:20:45.233Z,47.47
2018-07-11T09:24:49.738Z,39.37
2018-07-11T09:28:53.222Z,37.57
2018-07-11T09:32:56.614Z,35.63
2018-07-11T09:36:59.982Z,33.40
2018-07-11T09:41:03.045Z,36.23
2018-07-11T09:45:06.419Z,32.23
2018-07-11T09:49:09.852Z,27.93
2018-07-11T09:53:13.228Z,29.57
2018-07-11T09:57:17.503Z,22.20
2018-07-11T10:01:24.307Z,22.07
2018-07-11T10:05:27.678Z,19.80
2018-07-11T10:09:31.046Z,19.27
2018-07-11T10:13:34.419Z,18.00
2018-07-11T10:17:38.028Z,18.53
2018-07-11T10:21:41.185Z,22.37
2018-07-11T10:25:45.110Z,18.03
2018-07-11T10:29:48.523Z,17.23
2018-07-11T10:33:51.877Z,20.03
2018-07-11T10:37:55.219Z,20.53
2018-07-11T10:41:58.551Z,22.70
2018-07-11T10:46:01.898Z,22.73
2018-07-11T10:54:12.771Z,23.83
2018-07-11T10:58:16.123Z,27.33
2018-07-11T11:02:22.019Z,22.10
2018-07-11T11:06:25.348Z,21.10
2018-07-11T11:10:28.675Z,18.53
2018-07-11T11:14:32.072Z,25.33
2018-07-11T11:18:35.459Z,25.17
2018-07-11T11:22:38.832Z,21.13
2018-07-11T11:26:42.212Z,25.63
2018-07-11T11:30:45.671Z,27.70
2018-07-11T11:34:49.067Z,23.43
2018-07-11T11:38:52.427Z,24.43
2018-07-11T11:42:55.820Z,26.50
2018-07-11T11:47:02.245Z,37.53
2018-07-11T11:51:05.707Z,29.53
2018-07-11T11:55:09.024Z,34.10
2018-07-11T11:59:12.412Z,38.97
2018-07-11T12:03:15.746Z,66.27
2018-07-11T12:07:19.181Z,33.77
2018-07-11T12:11:22.434Z,26.43
2018-07-11T12:15:25.795Z,26.30
2018-07-11T12:19:29.175Z,21.13
2018-07-11T12:23:32.588Z,19.43
2018-07-11T12:27:35.970Z,20.23
2018-07-11T12:31:39.287Z,17.67
2018-07-11T12:35:42.671Z,18.93
2018-07-11T12:39:46.576Z,20.27
2018-07-11T12:43:49.931Z,20.90
2018-07-11T12:47:58.655Z,20.20
2018-07-11T12:52:02.014Z,17.47
2018-07-11T12:56:05.396Z,14.97
2018-07-11T13:00:08.750Z,14.53
2018-07-11T13:04:12.183Z,19.47
2018-07-11T13:08:17.039Z,14.87
2018-07-11T13:12:20.347Z,12.80
2018-07-11T13:16:23.758Z,9.27
2018-07-11T13:20:27.080Z,8.30
2018-07-11T13:24:30.577Z,6.97
2018-07-11T13:28:33.979Z,9.87
2018-07-11T13:32:37.337Z,10.07
2018-07-11T13:36:41.650Z,10.60
2018-07-11T13:40:45.104Z,11.60
2018-07-11T13:44:49.086Z,11.43
2018-07-11T13:48:52.650Z,7.60
2018-07-11T13:52:56.771Z,7.10
2018-07-11T13:57:01.391Z,6.33
2018-07-11T14:01:04.838Z,5.67
2018-07-11T14:05:08.203Z,6.20
2018-07-11T14:09:11.583Z,6.27
2018-07-11T14:13:15.004Z,7.50
2018-07-11T14:17:18.496Z,11.10
2018-07-11T14:21:33.680Z,11.40
2018-07-11T14:25:40.427Z,10.80
2018-07-11T14:29:44.861Z,10.20
2018-07-11T14:33:49.595Z,9.23
2018-07-11T14:37:52.948Z,11.10
2018-07-11T14:41:56.371Z,10.97
2018-07-11T14:45:59.803Z,11.83
2018-07-11T14:50:07.663Z,12.20
2018-07-11T14:54:11.007Z,10.27
2018-07-11T14:58:14.468Z,10.40
2018-07-11T15:02:17.808Z,10.23
2018-07-11T15:06:21.660Z,10.93
2018-07-11T15:10:25.563Z,10.37
2018-07-11T15:14:28.961Z,10.60
2018-07-11T15:18:32.372Z,10.70
2018-07-11T15:22:35.775Z,10.07
2018-07-11T15:26:40.526Z,10.27
2018-07-11T15:30:44.516Z,12.30
2018-07-11T15:34:47.912Z,10.90
2018-07-11T15:38:51.326Z,10.87
2018-07-11T15:42:54.738Z,10.80
2018-07-11T15:46:58.125Z,10.57
2018-07-11T15:51:01.553Z,10.67
2018-07-11T15:55:05.376Z,9.63
2018-07-11T15:59:10.110Z,9.87
2018-07-11T16:03:14.248Z,10.53
2018-07-11T16:07:17.853Z,9.87
2018-07-11T16:11:21.269Z,13.00
2018-07-11T16:15:24.656Z,10.47
2018-07-11T16:19:28.056Z,10.07
2018-07-11T16:23:31.446Z,10.20
2018-07-11T16:27:34.807Z,9.87
2018-07-11T16:31:38.181Z,8.87
2018-07-11T16:35:41.555Z,9.10
2018-07-11T16:39:44.995Z,8.53
2018-07-11T16:43:48.280Z,9.27
2018-07-11T16:47:51.647Z,9.30
2018-07-11T16:51:55.033Z,9.70
2018-07-11T16:55:58.767Z,9.73
2018-07-11T17:00:07.489Z,10.60
2018-07-11T17:04:12.104Z,11.70
2018-07-11T17:08:17.343Z,12.07
2018-07-11T17:12:20.803Z,11.73
2018-07-11T17:16:31.563Z,12.73
2018-07-11T17:20:35.095Z,13.75
2018-07-11T17:24:40.896Z,12.90
2018-07-11T17:28:44.303Z,12.77
2018-07-11T17:32:47.682Z,13.27
2018-07-11T17:36:57.519Z,12.57
2018-07-11T17:41:01.987Z,13.20
2018-07-11T17:45:16.772Z,13.47
2018-07-11T17:49:25.748Z,14.07
2018-07-11T17:53:35.048Z,15.37
2018-07-11T17:57:45.278Z,16.17
2018-07-11T18:01:50.826Z,15.93
2018-07-11T18:06:02.404Z,19.03
2018-07-11T18:10:06.958Z,15.90
2018-07-11T18:14:10.377Z,15.53
2018-07-11T18:18:25.042Z,17.13
2018-07-11T18:23:35.959Z,16.43
2018-07-11T18:27:50.608Z,16.97
2018-07-11T18:33:07.854Z,18.10
2018-07-11T18:37:19.805Z,18.40
2018-07-11T18:42:36.715Z,17.43
2018-07-11T18:47:17.447Z,16.67
2018-07-11T18:51:29.370Z,18.03
2018-07-11T18:55:39.160Z,16.60
2018-07-11T18:59:53.865Z,15.50
2018-07-11T19:04:08.286Z,16.87
2018-07-11T19:08:23.432Z,17.90
2018-07-11T19:12:29.175Z,18.60
2018-07-11T19:16:44.471Z,17.97
2018-07-11T19:22:02.861Z,17.17
2018-07-11T19:26:20.731Z,17.77
2018-07-11T19:30:34.276Z,17.47
2018-07-11T19:34:46.356Z,16.33
2018-07-11T19:39:00.573Z,17.53
2018-07-11T19:45:19.113Z,18.37
2018-07-11T19:49:37.182Z,17.73
2018-07-11T19:54:52.223Z,17.43
2018-07-11T19:58:55.678Z,17.33
2018-07-11T20:02:59.336Z,15.90
2018-07-11T20:07:04.237Z,14.80
2018-07-11T20:11:07.719Z,14.10
2018-07-11T20:15:11.720Z,14.80
2018-07-11T20:19:15.215Z,12.93
2018-07-11T20:23:19.501Z,52.73
2018-07-11T20:27:30.035Z,10.93
2018-07-11T20:31:33.228Z,12.00
2018-07-11T20:35:36.625Z,13.00
2018-07-11T20:39:40.715Z,11.60
2018-07-11T20:43:47.062Z,14.67
2018-07-11T20:47:52.952Z,13.40
2018-07-11T20:51:58.309Z,14.93
2018-07-11T20:56:03.346Z,15.95
2018-07-11T21:00:18.922Z,10.80
2018-07-11T21:04:33.721Z,11.23
2018-07-11T21:10:53.146Z,10.97
2018-07-11T21:16:18.343Z,10.17
2018-07-11T21:20:23.489Z,9.50
2018-07-11T21:24:27.629Z,9.90
2018-07-11T21:28:32.395Z,8.07
2018-07-11T21:32:36.976Z,9.93
2018-07-11T21:36:41.937Z,13.83
2018-07-11T21:40:46.509Z,15.40
2018-07-11T21:44:51.365Z,13.00
2018-07-11T21:48:55.383Z,15.97
2018-07-11T21:53:00.387Z,15.33
2018-07-11T21:57:04.591Z,15.57
2018-07-11T22:01:10.890Z,19.70
2018-07-11T22:05:15.433Z,23.07
2018-07-11T22:09:20.475Z,25.27
2018-07-11T22:13:23.904Z,25.33
2018-07-11T22:18:39.668Z,23.07
2018-07-11T22:22:42.071Z,20.37
2018-07-11T22:26:45.612Z,29.63
2018-07-11T22:30:49.828Z,29.17
2018-07-11T22:34:52.203Z,27.07
2018-07-11T22:38:54.541Z,26.17
2018-07-11T22:42:56.832Z,27.57
2018-07-11T22:46:59.136Z,24.23
2018-07-11T22:51:01.435Z,30.50
2018-07-11T22:55:03.747Z,25.50
2018-07-11T22:59:06.036Z,29.87
2018-07-11T23:03:08.352Z,28.97
2018-07-11T23:07:10.673Z,28.23
2018-07-11T23:11:12.992Z,27.97
2018-07-11T23:15:15.299Z,25.67
2018-07-11T23:19:17.583Z,29.67
2018-07-11T23:23:19.891Z,30.10
2018-07-11T23:27:22.210Z,27.47
2018-07-11T23:31:24.524Z,43.03
2018-07-11T23:35:26.860Z,44.63
2018-07-11T23:39:29.150Z,37.43
2018-07-11T23:43:31.487Z,41.10
2018-07-11T23:47:33.792Z,34.23
2018-07-11T23:51:36.116Z,43.17
2018-07-11T23:55:38.404Z,43.53
2018-07-11T23:59:40.755Z,52.83
